sensor_id;sensor_type;location;lat;lon;timestamp;P1;durP1;ratioP1;P2;durP2;ratioP2
83306;SDS011;73223;48.584;13.460;2024-01-30T00:01:50;14.25;;;5.50;;
83306;SDS011;73223;48.584;13.460;2024-01-30T00:04:16;14.25;;;5.30;;
83306;SDS011;73223;48.584;13.460;2024-01-30T00:06:42;15.20;;;5.95;;
83306;SDS011;73223;48.584;13.460;2024-01-30T00:09:07;17.33;;;5.60;;
83306;SDS011;73223;48.584;13.460;2024-01-30T00:11:34;13.18;;;5.50;;
83306;SDS011;73223;48.584;13.460;2024-01-30T00:13:59;12.90;;;5.53;;
83306;SDS011;73223;48.584;13.460;2024-01-30T00:16:24;14.53;;;5.87;;
83306;SDS011;73223;48.584;13.460;2024-01-30T00:18:50;16.08;;;5.75;;
83306;SDS011;73223;48.584;13.460;2024-01-30T00:21:16;13.80;;;4.75;;
83306;SDS011;73223;48.584;13.460;2024-01-30T00:23:42;13.10;;;5.45;;
83306;SDS011;73223;48.584;13.460;2024-01-30T00:26:08;14.57;;;5.65;;
83306;SDS011;73223;48.584;13.460;2024-01-30T00:28:33;14.93;;;4.97;;
83306;SDS011;73223;48.584;13.460;2024-01-30T00:30:58;17.70;;;6.13;;
83306;SDS011;73223;48.584;13.460;2024-01-30T00:33:23;12.83;;;5.87;;
83306;SDS011;73223;48.584;13.460;2024-01-30T00:35:48;14.77;;;5.90;;
83306;SDS011;73223;48.584;13.460;2024-01-30T00:38:14;19.20;;;7.10;;
83306;SDS011;73223;48.584;13.460;2024-01-30T00:40:39;10.93;;;6.10;;
83306;SDS011;73223;48.584;13.460;2024-01-30T00:43:04;15.10;;;6.60;;
83306;SDS011;73223;48.584;13.460;2024-01-30T00:45:30;13.70;;;6.13;;
83306;SDS011;73223;48.584;13.460;2024-01-30T00:47:56;13.25;;;6.00;;
83306;SDS011;73223;48.584;13.460;2024-01-30T00:50:21;15.05;;;5.57;;
83306;SDS011;73223;48.584;13.460;2024-01-30T00:52:46;15.13;;;6.65;;
83306;SDS011;73223;48.584;13.460;2024-01-30T00:55:12;14.32;;;5.93;;
83306;SDS011;73223;48.584;13.460;2024-01-30T00:57:37;13.70;;;5.93;;
83306;SDS011;73223;48.584;13.460;2024-01-30T01:00:03;14.63;;;5.70;;
83306;SDS011;73223;48.584;13.460;2024-01-30T01:02:31;16.60;;;6.63;;
83306;SDS011;73223;48.584;13.460;2024-01-30T01:04:56;14.98;;;5.50;;
83306;SDS011;73223;48.584;13.460;2024-01-30T01:07:21;13.35;;;4.82;;
83306;SDS011;73223;48.584;13.460;2024-01-30T01:09:47;12.03;;;5.13;;
83306;SDS011;73223;48.584;13.460;2024-01-30T01:12:12;12.38;;;4.40;;
83306;SDS011;73223;48.584;13.460;2024-01-30T01:14:38;11.30;;;5.10;;
83306;SDS011;73223;48.584;13.460;2024-01-30T01:17:03;14.13;;;5.22;;
83306;SDS011;73223;48.584;13.460;2024-01-30T01:19:28;10.60;;;4.47;;
83306;SDS011;73223;48.584;13.460;2024-01-30T01:21:53;9.37;;;4.23;;
83306;SDS011;73223;48.584;13.460;2024-01-30T01:24:19;12.10;;;4.90;;
83306;SDS011;73223;48.584;13.460;2024-01-30T01:26:44;15.27;;;5.53;;
83306;SDS011;73223;48.584;13.460;2024-01-30T01:29:09;13.77;;;5.37;;
83306;SDS011;73223;48.584;13.460;2024-01-30T01:34:08;11.98;;;4.25;;
83306;SDS011;73223;48.584;13.460;2024-01-30T01:36:33;12.98;;;4.72;;
83306;SDS011;73223;48.584;13.460;2024-01-30T01:38:59;10.17;;;5.07;;
83306;SDS011;73223;48.584;13.460;2024-01-30T01:41:24;14.40;;;5.43;;
83306;SDS011;73223;48.584;13.460;2024-01-30T01:43:49;11.23;;;4.93;;
83306;SDS011;73223;48.584;13.460;2024-01-30T01:46:14;11.77;;;5.10;;
83306;SDS011;73223;48.584;13.460;2024-01-30T01:48:42;11.80;;;4.85;;
83306;SDS011;73223;48.584;13.460;2024-01-30T01:51:08;12.27;;;5.10;;
83306;SDS011;73223;48.584;13.460;2024-01-30T01:53:34;11.95;;;4.63;;
83306;SDS011;73223;48.584;13.460;2024-01-30T01:56:00;12.38;;;5.43;;
83306;SDS011;73223;48.584;13.460;2024-01-30T01:58:25;10.55;;;4.75;;
83306;SDS011;73223;48.584;13.460;2024-01-30T02:00:53;13.13;;;4.95;;
83306;SDS011;73223;48.584;13.460;2024-01-30T02:03:19;13.55;;;5.28;;
83306;SDS011;73223;48.584;13.460;2024-01-30T02:05:46;10.90;;;5.10;;
83306;SDS011;73223;48.584;13.460;2024-01-30T02:08:12;12.93;;;5.60;;
83306;SDS011;73223;48.584;13.460;2024-01-30T02:10:37;8.82;;;4.60;;
83306;SDS011;73223;48.584;13.460;2024-01-30T02:13:02;18.25;;;5.35;;
83306;SDS011;73223;48.584;13.460;2024-01-30T02:15:28;12.57;;;4.85;;
83306;SDS011;73223;48.584;13.460;2024-01-30T02:17:54;16.52;;;5.13;;
83306;SDS011;73223;48.584;13.460;2024-01-30T02:20:19;16.83;;;6.35;;
83306;SDS011;73223;48.584;13.460;2024-01-30T02:22:45;12.68;;;5.05;;
83306;SDS011;73223;48.584;13.460;2024-01-30T02:25:11;12.00;;;5.10;;
83306;SDS011;73223;48.584;13.460;2024-01-30T02:27:37;14.13;;;4.80;;
83306;SDS011;73223;48.584;13.460;2024-01-30T02:30:02;16.47;;;5.17;;
83306;SDS011;73223;48.584;13.460;2024-01-30T02:32:28;14.65;;;5.32;;
83306;SDS011;73223;48.584;13.460;2024-01-30T02:34:53;11.43;;;5.18;;
83306;SDS011;73223;48.584;13.460;2024-01-30T02:37:18;9.67;;;4.60;;
83306;SDS011;73223;48.584;13.460;2024-01-30T02:39:43;11.45;;;5.57;;
83306;SDS011;73223;48.584;13.460;2024-01-30T02:42:09;11.80;;;5.50;;
83306;SDS011;73223;48.584;13.460;2024-01-30T02:44:34;12.93;;;6.10;;
83306;SDS011;73223;48.584;13.460;2024-01-30T02:46:59;12.35;;;5.25;;
83306;SDS011;73223;48.584;13.460;2024-01-30T02:49:24;14.00;;;5.30;;
83306;SDS011;73223;48.584;13.460;2024-01-30T02:51:51;9.80;;;4.82;;
83306;SDS011;73223;48.584;13.460;2024-01-30T02:54:16;12.95;;;4.88;;
83306;SDS011;73223;48.584;13.460;2024-01-30T02:56:41;11.67;;;4.77;;
83306;SDS011;73223;48.584;13.460;2024-01-30T02:59:07;14.73;;;5.27;;
83306;SDS011;73223;48.584;13.460;2024-01-30T03:01:32;12.27;;;4.80;;
83306;SDS011;73223;48.584;13.460;2024-01-30T03:03:57;13.57;;;5.10;;
83306;SDS011;73223;48.584;13.460;2024-01-30T03:06:22;11.63;;;5.22;;
83306;SDS011;73223;48.584;13.460;2024-01-30T03:08:48;17.00;;;6.20;;
83306;SDS011;73223;48.584;13.460;2024-01-30T03:11:13;12.32;;;5.35;;
83306;SDS011;73223;48.584;13.460;2024-01-30T03:13:38;10.40;;;5.53;;
83306;SDS011;73223;48.584;13.460;2024-01-30T03:16:04;11.35;;;5.43;;
83306;SDS011;73223;48.584;13.460;2024-01-30T03:18:29;14.25;;;6.63;;
83306;SDS011;73223;48.584;13.460;2024-01-30T03:20:55;13.20;;;5.17;;
83306;SDS011;73223;48.584;13.460;2024-01-30T03:23:20;15.50;;;5.38;;
83306;SDS011;73223;48.584;13.460;2024-01-30T03:25:45;11.37;;;4.80;;
83306;SDS011;73223;48.584;13.460;2024-01-30T03:28:10;18.90;;;6.80;;
83306;SDS011;73223;48.584;13.460;2024-01-30T03:30:36;15.82;;;6.00;;
83306;SDS011;73223;48.584;13.460;2024-01-30T03:33:01;13.83;;;5.33;;
83306;SDS011;73223;48.584;13.460;2024-01-30T03:35:26;14.73;;;6.50;;
83306;SDS011;73223;48.584;13.460;2024-01-30T03:37:51;18.43;;;6.27;;
83306;SDS011;73223;48.584;13.460;2024-01-30T03:40:17;16.03;;;6.23;;
83306;SDS011;73223;48.584;13.460;2024-01-30T03:42:42;13.85;;;6.32;;
83306;SDS011;73223;48.584;13.460;2024-01-30T03:45:08;18.67;;;7.20;;
83306;SDS011;73223;48.584;13.460;2024-01-30T03:47:33;14.73;;;6.30;;
83306;SDS011;73223;48.584;13.460;2024-01-30T03:49:58;14.93;;;5.55;;
83306;SDS011;73223;48.584;13.460;2024-01-30T03:52:24;19.43;;;6.00;;
83306;SDS011;73223;48.584;13.460;2024-01-30T03:54:49;17.27;;;6.28;;
83306;SDS011;73223;48.584;13.460;2024-01-30T03:57:14;11.32;;;6.22;;
83306;SDS011;73223;48.584;13.460;2024-01-30T03:59:41;15.73;;;6.27;;
83306;SDS011;73223;48.584;13.460;2024-01-30T04:04:32;14.73;;;6.03;;
83306;SDS011;73223;48.584;13.460;2024-01-30T04:06:57;17.60;;;6.27;;
83306;SDS011;73223;48.584;13.460;2024-01-30T04:09:22;13.33;;;5.60;;
83306;SDS011;73223;48.584;13.460;2024-01-30T04:11:48;13.48;;;5.82;;
83306;SDS011;73223;48.584;13.460;2024-01-30T04:14:13;12.88;;;5.80;;
83306;SDS011;73223;48.584;13.460;2024-01-30T04:16:38;11.93;;;5.17;;
83306;SDS011;73223;48.584;13.460;2024-01-30T04:19:04;12.13;;;4.73;;
83306;SDS011;73223;48.584;13.460;2024-01-30T04:21:29;13.87;;;5.27;;
83306;SDS011;73223;48.584;13.460;2024-01-30T04:23:54;17.05;;;5.85;;
83306;SDS011;73223;48.584;13.460;2024-01-30T04:26:19;14.63;;;5.83;;
83306;SDS011;73223;48.584;13.460;2024-01-30T04:28:45;14.35;;;6.72;;
83306;SDS011;73223;48.584;13.460;2024-01-30T04:31:10;18.83;;;6.78;;
83306;SDS011;73223;48.584;13.460;2024-01-30T04:33:36;21.90;;;7.68;;
83306;SDS011;73223;48.584;13.460;2024-01-30T04:36:01;16.33;;;6.40;;
83306;SDS011;73223;48.584;13.460;2024-01-30T04:38:27;15.40;;;6.90;;
83306;SDS011;73223;48.584;13.460;2024-01-30T04:40:53;14.38;;;6.57;;
83306;SDS011;73223;48.584;13.460;2024-01-30T04:43:18;14.02;;;6.38;;
83306;SDS011;73223;48.584;13.460;2024-01-30T04:45:44;13.85;;;6.53;;
83306;SDS011;73223;48.584;13.460;2024-01-30T04:48:09;16.23;;;7.03;;
83306;SDS011;73223;48.584;13.460;2024-01-30T04:50:34;14.37;;;6.00;;
83306;SDS011;73223;48.584;13.460;2024-01-30T04:53:00;14.35;;;5.82;;
83306;SDS011;73223;48.584;13.460;2024-01-30T04:55:25;20.83;;;7.13;;
83306;SDS011;73223;48.584;13.460;2024-01-30T04:57:50;15.13;;;6.88;;
83306;SDS011;73223;48.584;13.460;2024-01-30T05:00:15;19.35;;;7.43;;
83306;SDS011;73223;48.584;13.460;2024-01-30T05:02:41;13.95;;;6.50;;
83306;SDS011;73223;48.584;13.460;2024-01-30T05:05:06;14.15;;;7.55;;
83306;SDS011;73223;48.584;13.460;2024-01-30T05:07:32;22.17;;;7.30;;
83306;SDS011;73223;48.584;13.460;2024-01-30T05:09:58;18.25;;;7.60;;
83306;SDS011;73223;48.584;13.460;2024-01-30T05:12:23;16.42;;;7.28;;
83306;SDS011;73223;48.584;13.460;2024-01-30T05:14:48;20.13;;;7.63;;
83306;SDS011;73223;48.584;13.460;2024-01-30T05:17:14;18.37;;;7.27;;
83306;SDS011;73223;48.584;13.460;2024-01-30T05:19:39;20.93;;;7.80;;
83306;SDS011;73223;48.584;13.460;2024-01-30T05:22:04;19.13;;;6.67;;
83306;SDS011;73223;48.584;13.460;2024-01-30T05:24:30;16.33;;;7.68;;
83306;SDS011;73223;48.584;13.460;2024-01-30T05:26:55;20.33;;;7.82;;
83306;SDS011;73223;48.584;13.460;2024-01-30T05:29:20;18.67;;;7.13;;
83306;SDS011;73223;48.584;13.460;2024-01-30T05:31:45;17.15;;;8.00;;
83306;SDS011;73223;48.584;13.460;2024-01-30T05:34:11;17.03;;;7.00;;
83306;SDS011;73223;48.584;13.460;2024-01-30T05:36:36;19.10;;;6.80;;
83306;SDS011;73223;48.584;13.460;2024-01-30T05:39:01;16.10;;;7.07;;
83306;SDS011;73223;48.584;13.460;2024-01-30T05:41:27;17.98;;;6.63;;
83306;SDS011;73223;48.584;13.460;2024-01-30T05:43:52;13.23;;;5.50;;
83306;SDS011;73223;48.584;13.460;2024-01-30T05:46:18;18.08;;;6.68;;
83306;SDS011;73223;48.584;13.460;2024-01-30T05:48:43;17.00;;;7.20;;
83306;SDS011;73223;48.584;13.460;2024-01-30T05:51:08;17.13;;;6.07;;
83306;SDS011;73223;48.584;13.460;2024-01-30T05:53:34;15.93;;;7.28;;
83306;SDS011;73223;48.584;13.460;2024-01-30T05:56:03;17.90;;;7.53;;
83306;SDS011;73223;48.584;13.460;2024-01-30T05:58:28;15.63;;;6.22;;
83306;SDS011;73223;48.584;13.460;2024-01-30T06:00:54;19.20;;;7.47;;
83306;SDS011;73223;48.584;13.460;2024-01-30T06:03:19;15.73;;;7.20;;
83306;SDS011;73223;48.584;13.460;2024-01-30T06:05:44;20.92;;;8.55;;
83306;SDS011;73223;48.584;13.460;2024-01-30T06:08:10;20.07;;;8.37;;
83306;SDS011;73223;48.584;13.460;2024-01-30T06:10:35;18.98;;;8.77;;
83306;SDS011;73223;48.584;13.460;2024-01-30T06:13:01;23.15;;;8.60;;
83306;SDS011;73223;48.584;13.460;2024-01-30T06:15:26;17.15;;;8.68;;
83306;SDS011;73223;48.584;13.460;2024-01-30T06:17:52;19.17;;;8.07;;
83306;SDS011;73223;48.584;13.460;2024-01-30T06:20:17;21.73;;;9.60;;
83306;SDS011;73223;48.584;13.460;2024-01-30T06:22:43;23.10;;;8.27;;
83306;SDS011;73223;48.584;13.460;2024-01-30T06:25:08;23.58;;;9.15;;
83306;SDS011;73223;48.584;13.460;2024-01-30T06:27:33;20.73;;;8.98;;
83306;SDS011;73223;48.584;13.460;2024-01-30T06:29:59;20.13;;;8.40;;
83306;SDS011;73223;48.584;13.460;2024-01-30T06:32:24;23.30;;;8.43;;
83306;SDS011;73223;48.584;13.460;2024-01-30T06:34:49;17.20;;;8.05;;
83306;SDS011;73223;48.584;13.460;2024-01-30T06:37:14;19.87;;;7.33;;
83306;SDS011;73223;48.584;13.460;2024-01-30T06:39:40;17.60;;;7.17;;
83306;SDS011;73223;48.584;13.460;2024-01-30T06:42:05;17.77;;;7.33;;
83306;SDS011;73223;48.584;13.460;2024-01-30T06:44:30;16.05;;;6.43;;
83306;SDS011;73223;48.584;13.460;2024-01-30T06:46:56;16.13;;;6.77;;
83306;SDS011;73223;48.584;13.460;2024-01-30T06:49:21;17.38;;;6.75;;
83306;SDS011;73223;48.584;13.460;2024-01-30T06:51:47;15.60;;;5.95;;
83306;SDS011;73223;48.584;13.460;2024-01-30T06:54:12;16.10;;;5.30;;
83306;SDS011;73223;48.584;13.460;2024-01-30T06:56:38;13.20;;;5.37;;
83306;SDS011;73223;48.584;13.460;2024-01-30T06:59:03;13.73;;;6.15;;
83306;SDS011;73223;48.584;13.460;2024-01-30T07:01:30;15.95;;;5.50;;
83306;SDS011;73223;48.584;13.460;2024-01-30T07:03:55;15.35;;;6.63;;
83306;SDS011;73223;48.584;13.460;2024-01-30T07:06:21;12.63;;;5.90;;
83306;SDS011;73223;48.584;13.460;2024-01-30T07:08:47;16.17;;;6.82;;
83306;SDS011;73223;48.584;13.460;2024-01-30T07:11:18;14.20;;;6.63;;
83306;SDS011;73223;48.584;13.460;2024-01-30T07:13:44;17.92;;;7.43;;
83306;SDS011;73223;48.584;13.460;2024-01-30T07:16:10;13.77;;;5.53;;
83306;SDS011;73223;48.584;13.460;2024-01-30T07:18:35;13.97;;;6.10;;
83306;SDS011;73223;48.584;13.460;2024-01-30T07:21:00;13.97;;;5.93;;
83306;SDS011;73223;48.584;13.460;2024-01-30T07:23:25;13.83;;;6.17;;
83306;SDS011;73223;48.584;13.460;2024-01-30T07:25:51;13.18;;;5.28;;
83306;SDS011;73223;48.584;13.460;2024-01-30T07:28:16;10.53;;;3.90;;
83306;SDS011;73223;48.584;13.460;2024-01-30T07:30:42;16.85;;;6.68;;
83306;SDS011;73223;48.584;13.460;2024-01-30T07:33:07;13.30;;;5.75;;
83306;SDS011;73223;48.584;13.460;2024-01-30T07:35:33;14.52;;;5.90;;
83306;SDS011;73223;48.584;13.460;2024-01-30T07:37:59;14.40;;;6.18;;
83306;SDS011;73223;48.584;13.460;2024-01-30T07:40:24;11.07;;;4.83;;
83306;SDS011;73223;48.584;13.460;2024-01-30T07:42:49;15.30;;;5.80;;
83306;SDS011;73223;48.584;13.460;2024-01-30T07:45:15;12.32;;;5.88;;
83306;SDS011;73223;48.584;13.460;2024-01-30T07:47:40;11.13;;;5.47;;
83306;SDS011;73223;48.584;13.460;2024-01-30T07:50:07;15.30;;;5.88;;
83306;SDS011;73223;48.584;13.460;2024-01-30T07:52:33;12.75;;;5.53;;
83306;SDS011;73223;48.584;13.460;2024-01-30T07:54:58;13.18;;;5.25;;
83306;SDS011;73223;48.584;13.460;2024-01-30T07:57:23;15.50;;;6.00;;
83306;SDS011;73223;48.584;13.460;2024-01-30T07:59:48;15.98;;;6.68;;
83306;SDS011;73223;48.584;13.460;2024-01-30T08:02:14;18.87;;;7.33;;
83306;SDS011;73223;48.584;13.460;2024-01-30T08:04:39;16.33;;;7.43;;
83306;SDS011;73223;48.584;13.460;2024-01-30T08:07:05;17.98;;;8.05;;
83306;SDS011;73223;48.584;13.460;2024-01-30T08:09:30;24.90;;;9.27;;
83306;SDS011;73223;48.584;13.460;2024-01-30T08:11:55;17.00;;;8.37;;
83306;SDS011;73223;48.584;13.460;2024-01-30T08:14:20;19.10;;;7.70;;
83306;SDS011;73223;48.584;13.460;2024-01-30T08:16:46;16.10;;;8.07;;
83306;SDS011;73223;48.584;13.460;2024-01-30T08:19:11;17.13;;;8.25;;
83306;SDS011;73223;48.584;13.460;2024-01-30T08:21:37;20.50;;;8.68;;
83306;SDS011;73223;48.584;13.460;2024-01-30T08:24:05;23.92;;;8.80;;
83306;SDS011;73223;48.584;13.460;2024-01-30T08:26:31;24.80;;;9.55;;
83306;SDS011;73223;48.584;13.460;2024-01-30T08:28:57;19.75;;;9.35;;
83306;SDS011;73223;48.584;13.460;2024-01-30T08:31:23;23.00;;;9.50;;
83306;SDS011;73223;48.584;13.460;2024-01-30T08:33:48;21.83;;;8.95;;
83306;SDS011;73223;48.584;13.460;2024-01-30T08:36:14;13.57;;;6.88;;
83306;SDS011;73223;48.584;13.460;2024-01-30T08:38:40;15.50;;;7.22;;
83306;SDS011;73223;48.584;13.460;2024-01-30T08:41:05;14.20;;;7.23;;
83306;SDS011;73223;48.584;13.460;2024-01-30T08:43:32;14.77;;;6.60;;
83306;SDS011;73223;48.584;13.460;2024-01-30T08:46:00;15.40;;;6.90;;
83306;SDS011;73223;48.584;13.460;2024-01-30T08:48:26;14.68;;;6.95;;
83306;SDS011;73223;48.584;13.460;2024-01-30T08:50:51;21.55;;;8.05;;
83306;SDS011;73223;48.584;13.460;2024-01-30T08:53:17;17.15;;;7.35;;
83306;SDS011;73223;48.584;13.460;2024-01-30T08:55:42;17.97;;;8.00;;
83306;SDS011;73223;48.584;13.460;2024-01-30T08:58:07;20.88;;;8.25;;
83306;SDS011;73223;48.584;13.460;2024-01-30T09:00:33;18.80;;;8.60;;
83306;SDS011;73223;48.584;13.460;2024-01-30T09:02:58;22.98;;;9.07;;
83306;SDS011;73223;48.584;13.460;2024-01-30T09:05:23;23.43;;;9.50;;
83306;SDS011;73223;48.584;13.460;2024-01-30T09:07:48;20.20;;;9.20;;
83306;SDS011;73223;48.584;13.460;2024-01-30T09:10:14;19.27;;;8.20;;
83306;SDS011;73223;48.584;13.460;2024-01-30T09:12:39;21.50;;;8.65;;
83306;SDS011;73223;48.584;13.460;2024-01-30T09:15:05;20.03;;;9.57;;
83306;SDS011;73223;48.584;13.460;2024-01-30T09:17:30;22.48;;;9.65;;
83306;SDS011;73223;48.584;13.460;2024-01-30T09:19:55;19.80;;;8.40;;
83306;SDS011;73223;48.584;13.460;2024-01-30T09:22:21;20.77;;;9.63;;
83306;SDS011;73223;48.584;13.460;2024-01-30T09:24:46;26.45;;;10.55;;
83306;SDS011;73223;48.584;13.460;2024-01-30T09:27:11;22.83;;;9.43;;
83306;SDS011;73223;48.584;13.460;2024-01-30T09:29:37;21.75;;;9.43;;
83306;SDS011;73223;48.584;13.460;2024-01-30T09:32:02;27.58;;;11.25;;
83306;SDS011;73223;48.584;13.460;2024-01-30T09:34:29;24.83;;;10.70;;
83306;SDS011;73223;48.584;13.460;2024-01-30T09:36:54;18.20;;;9.73;;
83306;SDS011;73223;48.584;13.460;2024-01-30T09:39:19;20.43;;;10.47;;
83306;SDS011;73223;48.584;13.460;2024-01-30T09:41:48;22.23;;;10.52;;
83306;SDS011;73223;48.584;13.460;2024-01-30T09:44:18;25.75;;;10.60;;
83306;SDS011;73223;48.584;13.460;2024-01-30T09:46:45;22.08;;;9.98;;
83306;SDS011;73223;48.584;13.460;2024-01-30T09:49:13;20.98;;;10.32;;
83306;SDS011;73223;48.584;13.460;2024-01-30T09:51:39;21.35;;;9.82;;
83306;SDS011;73223;48.584;13.460;2024-01-30T09:54:05;24.65;;;10.48;;
83306;SDS011;73223;48.584;13.460;2024-01-30T09:56:33;22.95;;;10.23;;
83306;SDS011;73223;48.584;13.460;2024-01-30T09:58:58;22.87;;;11.10;;
83306;SDS011;73223;48.584;13.460;2024-01-30T10:01:23;23.60;;;9.60;;
83306;SDS011;73223;48.584;13.460;2024-01-30T10:03:50;19.45;;;10.10;;
83306;SDS011;73223;48.584;13.460;2024-01-30T10:06:17;21.15;;;9.95;;
83306;SDS011;73223;48.584;13.460;2024-01-30T10:08:43;21.30;;;10.20;;
83306;SDS011;73223;48.584;13.460;2024-01-30T10:11:08;22.33;;;10.05;;
83306;SDS011;73223;48.584;13.460;2024-01-30T10:13:34;23.40;;;9.95;;
83306;SDS011;73223;48.584;13.460;2024-01-30T10:16:00;24.50;;;11.07;;
83306;SDS011;73223;48.584;13.460;2024-01-30T10:18:27;19.73;;;9.80;;
83306;SDS011;73223;48.584;13.460;2024-01-30T10:20:52;19.92;;;9.48;;
83306;SDS011;73223;48.584;13.460;2024-01-30T10:23:18;24.75;;;10.48;;
83306;SDS011;73223;48.584;13.460;2024-01-30T10:25:44;25.58;;;9.85;;
83306;SDS011;73223;48.584;13.460;2024-01-30T10:28:11;19.58;;;10.05;;
83306;SDS011;73223;48.584;13.460;2024-01-30T10:30:37;20.92;;;9.82;;
83306;SDS011;73223;48.584;13.460;2024-01-30T10:33:02;20.43;;;10.43;;
83306;SDS011;73223;48.584;13.460;2024-01-30T10:35:27;19.35;;;10.32;;
83306;SDS011;73223;48.584;13.460;2024-01-30T10:37:53;19.08;;;9.65;;
83306;SDS011;73223;48.584;13.460;2024-01-30T10:40:22;23.38;;;10.20;;
83306;SDS011;73223;48.584;13.460;2024-01-30T10:42:52;19.80;;;10.48;;
83306;SDS011;73223;48.584;13.460;2024-01-30T10:45:20;20.83;;;9.60;;
83306;SDS011;73223;48.584;13.460;2024-01-30T10:47:50;25.00;;;10.07;;
83306;SDS011;73223;48.584;13.460;2024-01-30T10:50:18;23.27;;;9.65;;
83306;SDS011;73223;48.584;13.460;2024-01-30T10:52:43;20.98;;;10.35;;
83306;SDS011;73223;48.584;13.460;2024-01-30T10:55:09;22.48;;;9.48;;
83306;SDS011;73223;48.584;13.460;2024-01-30T10:57:35;23.17;;;10.55;;
83306;SDS011;73223;48.584;13.460;2024-01-30T11:00:03;19.30;;;9.73;;
83306;SDS011;73223;48.584;13.460;2024-01-30T11:02:30;19.02;;;9.52;;
83306;SDS011;73223;48.584;13.460;2024-01-30T11:04:57;17.75;;;8.95;;
83306;SDS011;73223;48.584;13.460;2024-01-30T11:07:24;21.55;;;9.88;;
83306;SDS011;73223;48.584;13.460;2024-01-30T11:12:23;21.00;;;10.02;;
83306;SDS011;73223;48.584;13.460;2024-01-30T11:17:27;19.45;;;9.73;;
83306;SDS011;73223;48.584;13.460;2024-01-30T11:22:20;18.43;;;8.93;;
83306;SDS011;73223;48.584;13.460;2024-01-30T11:24:45;23.10;;;10.55;;
83306;SDS011;73223;48.584;13.460;2024-01-30T11:27:12;22.15;;;10.65;;
83306;SDS011;73223;48.584;13.460;2024-01-30T11:29:38;22.27;;;10.02;;
83306;SDS011;73223;48.584;13.460;2024-01-30T11:32:05;22.50;;;10.50;;
83306;SDS011;73223;48.584;13.460;2024-01-30T11:34:32;27.10;;;11.50;;
83306;SDS011;73223;48.584;13.460;2024-01-30T11:36:59;24.33;;;11.32;;
83306;SDS011;73223;48.584;13.460;2024-01-30T11:39:31;31.50;;;10.90;;
83306;SDS011;73223;48.584;13.460;2024-01-30T11:41:56;23.95;;;10.38;;
83306;SDS011;73223;48.584;13.460;2024-01-30T11:44:23;22.58;;;10.13;;
83306;SDS011;73223;48.584;13.460;2024-01-30T11:46:48;18.27;;;9.38;;
83306;SDS011;73223;48.584;13.460;2024-01-30T11:49:15;25.27;;;10.95;;
83306;SDS011;73223;48.584;13.460;2024-01-30T11:51:42;21.33;;;9.93;;
83306;SDS011;73223;48.584;13.460;2024-01-30T11:54:08;20.90;;;10.50;;
83306;SDS011;73223;48.584;13.460;2024-01-30T11:56:33;21.85;;;11.25;;
83306;SDS011;73223;48.584;13.460;2024-01-30T11:58:59;22.73;;;10.18;;
83306;SDS011;73223;48.584;13.460;2024-01-30T12:01:25;23.30;;;10.75;;
83306;SDS011;73223;48.584;13.460;2024-01-30T12:03:51;22.85;;;11.05;;
83306;SDS011;73223;48.584;13.460;2024-01-30T12:06:17;22.75;;;11.00;;
83306;SDS011;73223;48.584;13.460;2024-01-30T12:08:42;23.52;;;11.27;;
83306;SDS011;73223;48.584;13.460;2024-01-30T12:11:08;21.52;;;11.00;;
83306;SDS011;73223;48.584;13.460;2024-01-30T12:13:33;21.13;;;10.40;;
83306;SDS011;73223;48.584;13.460;2024-01-30T12:16:00;22.05;;;10.90;;
83306;SDS011;73223;48.584;13.460;2024-01-30T12:18:26;20.77;;;11.05;;
83306;SDS011;73223;48.584;13.460;2024-01-30T12:20:58;19.95;;;9.70;;
83306;SDS011;73223;48.584;13.460;2024-01-30T12:23:24;23.02;;;10.80;;
83306;SDS011;73223;48.584;13.460;2024-01-30T12:25:51;18.88;;;10.18;;
83306;SDS011;73223;48.584;13.460;2024-01-30T12:28:17;25.02;;;11.32;;
83306;SDS011;73223;48.584;13.460;2024-01-30T12:30:42;21.13;;;10.13;;
83306;SDS011;73223;48.584;13.460;2024-01-30T12:33:07;19.98;;;10.35;;
83306;SDS011;73223;48.584;13.460;2024-01-30T12:35:34;20.42;;;10.02;;
83306;SDS011;73223;48.584;13.460;2024-01-30T12:38:00;25.10;;;11.80;;
83306;SDS011;73223;48.584;13.460;2024-01-30T12:40:25;19.95;;;10.85;;
83306;SDS011;73223;48.584;13.460;2024-01-30T12:42:51;24.42;;;10.93;;
83306;SDS011;73223;48.584;13.460;2024-01-30T12:45:17;21.77;;;10.93;;
83306;SDS011;73223;48.584;13.460;2024-01-30T12:47:47;23.05;;;10.40;;
83306;SDS011;73223;48.584;13.460;2024-01-30T12:50:13;20.77;;;10.20;;
83306;SDS011;73223;48.584;13.460;2024-01-30T12:52:40;20.42;;;11.23;;
83306;SDS011;73223;48.584;13.460;2024-01-30T12:55:06;20.77;;;10.32;;
83306;SDS011;73223;48.584;13.460;2024-01-30T12:57:31;21.33;;;10.75;;
83306;SDS011;73223;48.584;13.460;2024-01-30T12:59:57;20.90;;;10.73;;
83306;SDS011;73223;48.584;13.460;2024-01-30T13:02:22;20.60;;;10.00;;
83306;SDS011;73223;48.584;13.460;2024-01-30T13:04:48;22.17;;;10.63;;
83306;SDS011;73223;48.584;13.460;2024-01-30T13:07:13;19.98;;;10.30;;
83306;SDS011;73223;48.584;13.460;2024-01-30T13:09:38;22.58;;;10.05;;
83306;SDS011;73223;48.584;13.460;2024-01-30T13:12:04;20.13;;;10.80;;
83306;SDS011;73223;48.584;13.460;2024-01-30T13:14:30;17.83;;;9.63;;
83306;SDS011;73223;48.584;13.460;2024-01-30T13:16:55;19.90;;;10.40;;
83306;SDS011;73223;48.584;13.460;2024-01-30T13:19:20;16.43;;;9.47;;
83306;SDS011;73223;48.584;13.460;2024-01-30T13:21:46;22.45;;;10.85;;
83306;SDS011;73223;48.584;13.460;2024-01-30T13:26:37;24.27;;;10.20;;
83306;SDS011;73223;48.584;13.460;2024-01-30T13:29:03;19.70;;;9.17;;
83306;SDS011;73223;48.584;13.460;2024-01-30T13:31:28;22.05;;;10.40;;
83306;SDS011;73223;48.584;13.460;2024-01-30T13:33:54;21.30;;;11.00;;
83306;SDS011;73223;48.584;13.460;2024-01-30T13:36:20;24.17;;;11.13;;
83306;SDS011;73223;48.584;13.460;2024-01-30T13:38:46;21.42;;;10.00;;
83306;SDS011;73223;48.584;13.460;2024-01-30T13:41:11;24.02;;;11.25;;
83306;SDS011;73223;48.584;13.460;2024-01-30T13:43:37;25.15;;;11.27;;
83306;SDS011;73223;48.584;13.460;2024-01-30T13:46:02;23.23;;;11.50;;
83306;SDS011;73223;48.584;13.460;2024-01-30T13:48:28;22.90;;;11.90;;
83306;SDS011;73223;48.584;13.460;2024-01-30T13:50:54;22.65;;;11.43;;
83306;SDS011;73223;48.584;13.460;2024-01-30T13:53:20;23.65;;;11.70;;
83306;SDS011;73223;48.584;13.460;2024-01-30T13:55:45;23.25;;;12.38;;
83306;SDS011;73223;48.584;13.460;2024-01-30T13:58:12;24.77;;;12.13;;
83306;SDS011;73223;48.584;13.460;2024-01-30T14:00:37;22.67;;;11.30;;
83306;SDS011;73223;48.584;13.460;2024-01-30T14:03:02;24.43;;;11.80;;
83306;SDS011;73223;48.584;13.460;2024-01-30T14:05:28;25.80;;;13.00;;
83306;SDS011;73223;48.584;13.460;2024-01-30T14:07:53;26.67;;;12.23;;
83306;SDS011;73223;48.584;13.460;2024-01-30T14:10:19;24.00;;;13.13;;
83306;SDS011;73223;48.584;13.460;2024-01-30T14:12:45;22.38;;;12.05;;
83306;SDS011;73223;48.584;13.460;2024-01-30T14:15:13;23.95;;;11.48;;
83306;SDS011;73223;48.584;13.460;2024-01-30T14:17:39;28.58;;;13.15;;
83306;SDS011;73223;48.584;13.460;2024-01-30T14:20:05;23.80;;;12.02;;
83306;SDS011;73223;48.584;13.460;2024-01-30T14:24:57;29.77;;;13.48;;
83306;SDS011;73223;48.584;13.460;2024-01-30T14:27:22;24.80;;;12.82;;